EZY38XG LFBD-EGBB
Flight info
| Callsign | EZY38XG |
|---|---|
| Flight time | 1h 22m |
| Altitude | 36000 |
| Route | CNA DCT MANAK DCT EPAPU UM184 HEMEL |
| Aircraft | A320/M-SDE3FGHIRWY/LB1 |
Departure
| Time | 2026-05-08 19:34 |
|---|---|
| Airport | Bordeaux–Mérignac Airport (LFBD) |
Arrival
| Time | 2026-05-08 20:56 |
|---|---|
| Airport | Birmingham Airport (EGBB) |
| Time | Latitude | Longitude | Altitude | Speed | Heading |
|---|---|---|---|---|---|
| 2026-05-08 19:29 | 44.82887 | -0.70678 | 167 ft | 8 kts | 286° |
| 2026-05-08 19:29 | 44.82901 | -0.70745 | 167 ft | 7 kts | 286° |
| 2026-05-08 19:30 | 44.82914 | -0.70807 | 167 ft | 8 kts | 287° |
| 2026-05-08 19:30 | 44.82940 | -0.70930 | 166 ft | 16 kts | 284° |
| 2026-05-08 19:30 | 44.82971 | -0.71083 | 163 ft | 17 kts | 288° |
| 2026-05-08 19:30 | 44.83006 | -0.71235 | 163 ft | 14 kts | 288° |
| 2026-05-08 19:31 | 44.83028 | -0.71350 | 166 ft | 10 kts | 284° |
| 2026-05-08 19:31 | 44.83046 | -0.71438 | 166 ft | 9 kts | 287° |
| 2026-05-08 19:31 | 44.83071 | -0.71553 | 166 ft | 17 kts | 287° |
| 2026-05-08 19:31 | 44.83110 | -0.71728 | 168 ft | 18 kts | 287° |
| 2026-05-08 19:32 | 44.83145 | -0.71891 | 166 ft | 17 kts | 287° |
| 2026-05-08 19:32 | 44.83171 | -0.72036 | 167 ft | 13 kts | 270° |
| 2026-05-08 19:32 | 44.83114 | -0.72106 | 167 ft | 11 kts | 199° |
| 2026-05-08 19:32 | 44.83047 | -0.72136 | 167 ft | 9 kts | 196° |
| 2026-05-08 19:33 | 44.83007 | -0.72173 | 168 ft | 5 kts | 215° |
| 2026-05-08 19:33 | 44.82995 | -0.72162 | 168 ft | 1 kts | 108° |
| 2026-05-08 19:33 | 44.82971 | -0.72047 | 169 ft | 45 kts | 106° |
| 2026-05-08 19:34 | 44.82809 | -0.71279 | 161 ft | 115 kts | 106° |
| 2026-05-08 19:34 | 44.82532 | -0.69970 | 310 ft | 152 kts | 107° |
| 2026-05-08 19:34 | 44.82222 | -0.68555 | 1006 ft | 150 kts | 109° |
| 2026-05-08 19:34 | 44.81713 | -0.67244 | 1510 ft | 159 kts | 130° |
| 2026-05-08 19:35 | 44.80806 | -0.66208 | 1777 ft | 180 kts | 153° |
| 2026-05-08 19:35 | 44.79529 | -0.65689 | 1997 ft | 204 kts | 169° |
| 2026-05-08 19:35 | 44.78157 | -0.64936 | 2293 ft | 226 kts | 141° |
| 2026-05-08 19:35 | 44.76895 | -0.63410 | 2690 ft | 248 kts | 148° |
| 2026-05-08 19:36 | 44.75219 | -0.62789 | 3390 ft | 258 kts | 184° |
| 2026-05-08 19:36 | 44.73507 | -0.63589 | 4231 ft | 264 kts | 211° |
| 2026-05-08 19:36 | 44.72098 | -0.65259 | 5125 ft | 267 kts | 229° |
| 2026-05-08 19:36 | 44.71081 | -0.67457 | 6013 ft | 271 kts | 244° |
| 2026-05-08 19:37 | 44.70540 | -0.70000 | 6873 ft | 275 kts | 262° |
| 2026-05-08 19:37 | 44.70644 | -0.72696 | 7677 ft | 281 kts | 283° |
| 2026-05-08 19:37 | 44.71535 | -0.75161 | 8446 ft | 290 kts | 309° |
| 2026-05-08 19:37 | 44.73152 | -0.76879 | 9221 ft | 298 kts | 336° |
| 2026-05-08 19:38 | 44.75198 | -0.77423 | 9907 ft | 305 kts | 5° |
| 2026-05-08 19:38 | 44.77265 | -0.76666 | 10412 ft | 317 kts | 22° |
| 2026-05-08 19:38 | 44.79381 | -0.75475 | 10631 ft | 338 kts | 23° |
| 2026-05-08 19:38 | 44.81592 | -0.74185 | 11178 ft | 347 kts | 24° |
| 2026-05-08 19:39 | 44.83837 | -0.72864 | 11857 ft | 352 kts | 23° |
| 2026-05-08 19:39 | 44.86119 | -0.71531 | 12557 ft | 357 kts | 23° |
| 2026-05-08 19:39 | 44.88429 | -0.70193 | 13245 ft | 361 kts | 23° |
| 2026-05-08 19:39 | 44.90767 | -0.68846 | 13896 ft | 366 kts | 22° |
| 2026-05-08 19:40 | 44.93137 | -0.67485 | 14513 ft | 369 kts | 22° |
| 2026-05-08 19:40 | 44.95525 | -0.66113 | 15122 ft | 373 kts | 22° |
| 2026-05-08 19:40 | 44.97939 | -0.64722 | 15737 ft | 376 kts | 22° |
| 2026-05-08 19:40 | 45.00384 | -0.63312 | 16336 ft | 380 kts | 23° |
| 2026-05-08 19:41 | 45.02840 | -0.61894 | 16916 ft | 384 kts | 23° |
| 2026-05-08 19:41 | 45.05330 | -0.60453 | 17503 ft | 388 kts | 22° |
| 2026-05-08 19:41 | 45.07840 | -0.59001 | 18091 ft | 392 kts | 22° |
| 2026-05-08 19:41 | 45.10379 | -0.57530 | 18614 ft | 395 kts | 23° |
| 2026-05-08 19:42 | 45.12935 | -0.56047 | 19137 ft | 398 kts | 23° |
| 2026-05-08 19:42 | 45.15511 | -0.54577 | 19691 ft | 400 kts | 21° |
| 2026-05-08 19:42 | 45.18138 | -0.53233 | 20243 ft | 403 kts | 20° |
| 2026-05-08 19:42 | 45.20772 | -0.52010 | 20778 ft | 405 kts | 18° |
| 2026-05-08 19:43 | 45.23475 | -0.50818 | 21311 ft | 408 kts | 18° |
| 2026-05-08 19:43 | 45.26204 | -0.49671 | 21848 ft | 411 kts | 14° |
| 2026-05-08 19:43 | 45.29057 | -0.49297 | 22365 ft | 414 kts | 357° |
| 2026-05-08 19:43 | 45.31933 | -0.49643 | 22885 ft | 417 kts | 355° |
| 2026-05-08 19:44 | 45.34842 | -0.50028 | 23393 ft | 420 kts | 355° |
| 2026-05-08 19:44 | 45.37762 | -0.50422 | 23819 ft | 423 kts | 355° |
| 2026-05-08 19:44 | 45.40698 | -0.50822 | 24217 ft | 425 kts | 355° |
| 2026-05-08 19:44 | 45.43654 | -0.51220 | 24602 ft | 428 kts | 355° |
| 2026-05-08 19:45 | 45.46625 | -0.51615 | 24978 ft | 431 kts | 355° |
| 2026-05-08 19:45 | 45.49623 | -0.52018 | 25352 ft | 433 kts | 355° |
| 2026-05-08 19:45 | 45.52636 | -0.52425 | 25714 ft | 436 kts | 355° |
| 2026-05-08 19:45 | 45.55665 | -0.52830 | 26068 ft | 439 kts | 356° |
| 2026-05-08 19:46 | 45.58718 | -0.53236 | 26414 ft | 441 kts | 356° |
| 2026-05-08 19:46 | 45.61782 | -0.53642 | 26733 ft | 444 kts | 356° |
| 2026-05-08 19:46 | 45.67984 | -0.54472 | 27394 ft | 450 kts | 356° |
| 2026-05-08 19:47 | 45.71104 | -0.54894 | 27714 ft | 452 kts | 356° |
| 2026-05-08 19:47 | 45.74246 | -0.55318 | 28044 ft | 455 kts | 356° |
| 2026-05-08 19:47 | 45.77405 | -0.55746 | 28361 ft | 457 kts | 356° |
| 2026-05-08 19:47 | 45.80579 | -0.56173 | 28687 ft | 459 kts | 356° |
| 2026-05-08 19:48 | 45.83766 | -0.56600 | 28996 ft | 461 kts | 356° |
| 2026-05-08 19:48 | 45.86968 | -0.57032 | 29303 ft | 463 kts | 356° |
| 2026-05-08 19:48 | 45.90145 | -0.57462 | 29598 ft | 465 kts | 356° |
| 2026-05-08 19:48 | 45.93378 | -0.57903 | 29890 ft | 468 kts | 356° |
| 2026-05-08 19:49 | 45.96620 | -0.58346 | 30144 ft | 470 kts | 356° |
| 2026-05-08 19:49 | 45.99885 | -0.58794 | 30388 ft | 471 kts | 356° |
| 2026-05-08 19:49 | 46.03153 | -0.59244 | 30638 ft | 472 kts | 356° |
| 2026-05-08 19:49 | 46.06430 | -0.59697 | 30870 ft | 474 kts | 356° |
| 2026-05-08 19:50 | 46.09721 | -0.60149 | 31105 ft | 475 kts | 356° |
| 2026-05-08 19:50 | 46.13013 | -0.60596 | 31424 ft | 474 kts | 356° |
| 2026-05-08 19:50 | 46.16291 | -0.61037 | 31734 ft | 473 kts | 356° |
| 2026-05-08 19:50 | 46.19566 | -0.61481 | 32061 ft | 472 kts | 356° |
| 2026-05-08 19:51 | 46.22834 | -0.61927 | 32393 ft | 471 kts | 356° |
| 2026-05-08 19:51 | 46.26095 | -0.62373 | 32713 ft | 470 kts | 356° |
| 2026-05-08 19:51 | 46.29347 | -0.62822 | 33016 ft | 470 kts | 356° |
| 2026-05-08 19:51 | 46.32597 | -0.63272 | 33323 ft | 469 kts | 356° |
| 2026-05-08 19:52 | 46.35845 | -0.63721 | 33632 ft | 469 kts | 356° |
| 2026-05-08 19:52 | 46.39091 | -0.64174 | 33930 ft | 468 kts | 356° |
| 2026-05-08 19:52 | 46.41237 | -0.64473 | 34134 ft | 467 kts | 356° |
| 2026-05-08 19:52 | 46.44463 | -0.64922 | 34405 ft | 466 kts | 356° |
| 2026-05-08 19:53 | 46.47688 | -0.65370 | 34663 ft | 465 kts | 356° |
| 2026-05-08 19:53 | 46.50914 | -0.65814 | 34901 ft | 465 kts | 356° |
| 2026-05-08 19:53 | 46.54126 | -0.66254 | 35128 ft | 464 kts | 355° |
| 2026-05-08 19:53 | 46.58389 | -0.66842 | 35445 ft | 463 kts | 355° |
| 2026-05-08 19:54 | 46.60553 | -0.67142 | 35642 ft | 462 kts | 355° |
| 2026-05-08 19:54 | 46.63748 | -0.67584 | 35880 ft | 461 kts | 355° |
| 2026-05-08 19:54 | 46.70097 | -0.68472 | 35963 ft | 456 kts | 355° |
| 2026-05-08 19:55 | 46.76405 | -0.69362 | 35963 ft | 455 kts | 355° |
| 2026-05-08 19:55 | 46.82664 | -0.70235 | 35967 ft | 455 kts | 355° |
| 2026-05-08 19:56 | 46.88969 | -0.71119 | 35970 ft | 455 kts | 355° |
| 2026-05-08 19:56 | 46.95269 | -0.72006 | 35968 ft | 454 kts | 355° |
| 2026-05-08 19:57 | 47.01565 | -0.72895 | 35962 ft | 454 kts | 355° |
| 2026-05-08 19:57 | 47.07860 | -0.73782 | 35962 ft | 454 kts | 355° |
| 2026-05-08 19:58 | 47.14155 | -0.74672 | 35962 ft | 454 kts | 355° |
| 2026-05-08 19:58 | 47.20448 | -0.75574 | 35952 ft | 454 kts | 354° |
| 2026-05-08 19:59 | 47.26748 | -0.76475 | 35956 ft | 454 kts | 354° |
| 2026-05-08 19:59 | 47.33042 | -0.77368 | 35952 ft | 454 kts | 354° |
| 2026-05-08 20:00 | 47.39335 | -0.78266 | 35965 ft | 454 kts | 354° |
| 2026-05-08 20:00 | 47.45624 | -0.79175 | 35977 ft | 454 kts | 354° |
| 2026-05-08 20:01 | 47.51905 | -0.80082 | 35979 ft | 453 kts | 354° |
| 2026-05-08 20:01 | 47.58172 | -0.80981 | 35982 ft | 453 kts | 354° |
| 2026-05-08 20:02 | 47.64438 | -0.81882 | 35988 ft | 452 kts | 354° |
| 2026-05-08 20:02 | 47.70690 | -0.82795 | 35988 ft | 451 kts | 354° |
| 2026-05-08 20:03 | 47.76934 | -0.83709 | 35988 ft | 450 kts | 354° |
| 2026-05-08 20:03 | 47.83164 | -0.84621 | 36008 ft | 450 kts | 354° |
| 2026-05-08 20:04 | 47.89394 | -0.85513 | 36002 ft | 450 kts | 354° |
| 2026-05-08 20:04 | 47.95585 | -0.86409 | 35994 ft | 449 kts | 354° |
| 2026-05-08 20:05 | 48.01810 | -0.87327 | 35998 ft | 449 kts | 354° |
| 2026-05-08 20:05 | 48.08029 | -0.88253 | 35994 ft | 449 kts | 353° |
| 2026-05-08 20:06 | 48.14236 | -0.89171 | 36003 ft | 448 kts | 354° |
| 2026-05-08 20:06 | 48.20442 | -0.90082 | 36000 ft | 448 kts | 354° |
| 2026-05-08 20:07 | 48.26642 | -0.90998 | 36008 ft | 447 kts | 353° |
| 2026-05-08 20:07 | 48.32832 | -0.91921 | 36011 ft | 446 kts | 353° |
| 2026-05-08 20:08 | 48.39020 | -0.92841 | 36013 ft | 446 kts | 353° |
| 2026-05-08 20:08 | 48.45201 | -0.93763 | 36007 ft | 446 kts | 353° |
| 2026-05-08 20:09 | 48.51365 | -0.94692 | 36018 ft | 445 kts | 353° |
| 2026-05-08 20:09 | 48.57520 | -0.95611 | 36019 ft | 445 kts | 353° |
| 2026-05-08 20:10 | 48.63684 | -0.96532 | 36012 ft | 444 kts | 353° |
| 2026-05-08 20:10 | 48.69831 | -0.97459 | 36028 ft | 444 kts | 353° |
| 2026-05-08 20:11 | 48.75987 | -0.98389 | 36021 ft | 443 kts | 353° |
| 2026-05-08 20:11 | 48.82124 | -0.99317 | 36025 ft | 443 kts | 353° |
| 2026-05-08 20:12 | 48.88218 | -1.00236 | 36028 ft | 443 kts | 353° |
| 2026-05-08 20:12 | 48.94352 | -1.01170 | 36026 ft | 443 kts | 353° |
| 2026-05-08 20:13 | 49.00481 | -1.02115 | 36020 ft | 443 kts | 353° |
| 2026-05-08 20:13 | 49.06609 | -1.03055 | 36026 ft | 443 kts | 353° |
| 2026-05-08 20:14 | 49.12737 | -1.03992 | 36039 ft | 442 kts | 352° |
| 2026-05-08 20:14 | 49.18862 | -1.04928 | 36040 ft | 442 kts | 352° |
| 2026-05-08 20:15 | 49.24976 | -1.05872 | 36043 ft | 442 kts | 352° |
| 2026-05-08 20:15 | 49.31090 | -1.06815 | 36044 ft | 441 kts | 352° |
| 2026-05-08 20:16 | 49.37151 | -1.07752 | 36038 ft | 441 kts | 352° |
| 2026-05-08 20:16 | 49.43256 | -1.08694 | 36049 ft | 441 kts | 352° |
| 2026-05-08 20:17 | 49.49360 | -1.09650 | 36052 ft | 440 kts | 352° |
| 2026-05-08 20:17 | 49.55440 | -1.10605 | 36058 ft | 440 kts | 352° |
| 2026-05-08 20:18 | 49.61524 | -1.10662 | 36053 ft | 443 kts | 3° |
| 2026-05-08 20:18 | 49.67334 | -1.09845 | 36057 ft | 443 kts | 3° |
| 2026-05-08 20:19 | 49.73433 | -1.09013 | 36058 ft | 443 kts | 3° |
| 2026-05-08 20:19 | 49.78897 | -1.08276 | 36067 ft | 442 kts | 3° |
| 2026-05-08 20:20 | 49.85002 | -1.07445 | 36068 ft | 442 kts | 3° |
| 2026-05-08 20:20 | 49.91127 | -1.06604 | 36072 ft | 442 kts | 3° |
| 2026-05-08 20:21 | 49.97248 | -1.05773 | 36087 ft | 442 kts | 2° |
| 2026-05-08 20:21 | 50.03368 | -1.04931 | 36089 ft | 441 kts | 3° |
| 2026-05-08 20:22 | 50.09483 | -1.04077 | 36087 ft | 441 kts | 2° |
| 2026-05-08 20:22 | 50.14566 | -1.03373 | 36084 ft | 441 kts | 2° |
| 2026-05-08 20:23 | 50.21666 | -1.02371 | 36093 ft | 440 kts | 2° |
| 2026-05-08 20:23 | 50.27801 | -1.01503 | 36094 ft | 440 kts | 2° |
| 2026-05-08 20:24 | 50.33860 | -1.00655 | 36094 ft | 440 kts | 2° |
| 2026-05-08 20:24 | 50.39949 | -0.99801 | 36090 ft | 439 kts | 2° |
| 2026-05-08 20:25 | 50.46044 | -0.98940 | 36097 ft | 439 kts | 2° |
| 2026-05-08 20:25 | 50.52131 | -0.98076 | 36095 ft | 439 kts | 2° |
| 2026-05-08 20:26 | 50.58211 | -0.97216 | 36093 ft | 439 kts | 2° |
| 2026-05-08 20:26 | 50.64296 | -0.96353 | 36091 ft | 439 kts | 2° |
| 2026-05-08 20:27 | 50.70373 | -0.95496 | 36106 ft | 438 kts | 2° |
| 2026-05-08 20:27 | 50.76449 | -0.94631 | 36105 ft | 438 kts | 2° |
| 2026-05-08 20:28 | 50.82499 | -0.93465 | 36091 ft | 440 kts | 11° |
| 2026-05-08 20:28 | 50.88366 | -0.90558 | 36120 ft | 441 kts | 15° |
| 2026-05-08 20:29 | 50.94188 | -0.87534 | 36117 ft | 440 kts | 15° |
| 2026-05-08 20:29 | 51.00002 | -0.84514 | 36120 ft | 439 kts | 15° |
| 2026-05-08 20:30 | 51.05806 | -0.81504 | 36102 ft | 439 kts | 15° |
| 2026-05-08 20:30 | 51.11632 | -0.78480 | 35670 ft | 441 kts | 15° |
| 2026-05-08 20:31 | 51.14565 | -0.76951 | 34335 ft | 447 kts | 15° |
| 2026-05-08 20:31 | 51.17513 | -0.75408 | 33322 ft | 442 kts | 15° |
| 2026-05-08 20:31 | 51.20368 | -0.73900 | 32924 ft | 424 kts | 15° |
| 2026-05-08 20:31 | 51.23125 | -0.72439 | 32418 ft | 410 kts | 15° |
| 2026-05-08 20:32 | 51.25794 | -0.71027 | 31925 ft | 398 kts | 15° |
| 2026-05-08 20:32 | 51.28399 | -0.69656 | 31202 ft | 393 kts | 15° |
| 2026-05-08 20:32 | 51.30988 | -0.68302 | 30480 ft | 389 kts | 15° |
| 2026-05-08 20:32 | 51.33547 | -0.66967 | 29728 ft | 386 kts | 15° |
| 2026-05-08 20:33 | 51.36081 | -0.65643 | 29096 ft | 377 kts | 15° |
| 2026-05-08 20:33 | 51.38534 | -0.64353 | 28698 ft | 369 kts | 15° |
| 2026-05-08 20:33 | 51.40964 | -0.63072 | 28221 ft | 368 kts | 15° |
| 2026-05-08 20:33 | 51.43387 | -0.61788 | 27640 ft | 365 kts | 15° |
| 2026-05-08 20:34 | 51.45787 | -0.60511 | 26970 ft | 362 kts | 16° |
| 2026-05-08 20:34 | 51.48161 | -0.59246 | 26428 ft | 356 kts | 16° |
| 2026-05-08 20:34 | 51.52107 | -0.57145 | 26298 ft | 357 kts | 16° |
| 2026-05-08 20:35 | 51.55232 | -0.55486 | 26168 ft | 357 kts | 16° |
| 2026-05-08 20:35 | 51.57592 | -0.54233 | 26094 ft | 357 kts | 16° |
| 2026-05-08 20:35 | 51.59188 | -0.53385 | 26044 ft | 359 kts | 16° |
| 2026-05-08 20:35 | 51.61558 | -0.52122 | 25685 ft | 358 kts | 16° |
| 2026-05-08 20:36 | 51.63936 | -0.50960 | 25271 ft | 359 kts | 7° |
| 2026-05-08 20:36 | 51.66423 | -0.50803 | 24893 ft | 365 kts | 348° |
| 2026-05-08 20:36 | 51.68883 | -0.51903 | 24489 ft | 363 kts | 337° |
| 2026-05-08 20:36 | 51.71264 | -0.53289 | 24107 ft | 364 kts | 337° |
| 2026-05-08 20:37 | 51.73636 | -0.54693 | 23703 ft | 363 kts | 337° |
| 2026-05-08 20:37 | 51.75999 | -0.56103 | 23368 ft | 362 kts | 337° |
| 2026-05-08 20:37 | 51.78360 | -0.57513 | 23095 ft | 361 kts | 337° |
| 2026-05-08 20:37 | 51.80710 | -0.58914 | 22826 ft | 360 kts | 337° |
| 2026-05-08 20:38 | 51.83059 | -0.60311 | 22569 ft | 359 kts | 337° |
| 2026-05-08 20:38 | 51.85402 | -0.61702 | 22302 ft | 358 kts | 337° |
| 2026-05-08 20:38 | 51.87732 | -0.63081 | 22038 ft | 357 kts | 337° |
| 2026-05-08 20:38 | 51.90067 | -0.64460 | 21773 ft | 356 kts | 337° |
| 2026-05-08 20:39 | 51.92385 | -0.65836 | 21515 ft | 355 kts | 337° |
| 2026-05-08 20:39 | 51.94694 | -0.67211 | 21261 ft | 354 kts | 337° |
| 2026-05-08 20:39 | 51.97001 | -0.68591 | 21001 ft | 353 kts | 337° |
| 2026-05-08 20:39 | 51.99296 | -0.69982 | 20745 ft | 351 kts | 334° |
| 2026-05-08 20:40 | 52.01316 | -0.72086 | 20487 ft | 342 kts | 312° |
| 2026-05-08 20:40 | 52.02895 | -0.74959 | 20202 ft | 340 kts | 306° |
| 2026-05-08 20:40 | 52.04391 | -0.77918 | 19861 ft | 339 kts | 306° |
| 2026-05-08 20:40 | 52.05790 | -0.80971 | 19492 ft | 335 kts | 298° |
| 2026-05-08 20:41 | 52.06960 | -0.84226 | 19134 ft | 333 kts | 296° |
| 2026-05-08 20:41 | 52.08098 | -0.87501 | 18778 ft | 331 kts | 296° |
| 2026-05-08 20:41 | 52.09224 | -0.90752 | 18427 ft | 330 kts | 296° |
| 2026-05-08 20:41 | 52.10352 | -0.94004 | 18031 ft | 329 kts | 296° |
| 2026-05-08 20:42 | 52.11468 | -0.97237 | 17623 ft | 327 kts | 296° |
| 2026-05-08 20:42 | 52.12573 | -1.00462 | 17231 ft | 325 kts | 296° |
| 2026-05-08 20:42 | 52.13664 | -1.03678 | 16842 ft | 324 kts | 296° |
| 2026-05-08 20:42 | 52.14746 | -1.06887 | 16448 ft | 323 kts | 297° |
| 2026-05-08 20:43 | 52.16075 | -1.09839 | 16083 ft | 324 kts | 309° |
| 2026-05-08 20:43 | 52.17601 | -1.12529 | 15781 ft | 321 kts | 311° |
| 2026-05-08 20:43 | 52.19130 | -1.15175 | 15481 ft | 319 kts | 311° |
| 2026-05-08 20:43 | 52.20645 | -1.17800 | 15184 ft | 317 kts | 311° |
| 2026-05-08 20:44 | 52.22150 | -1.20414 | 14889 ft | 315 kts | 311° |
| 2026-05-08 20:44 | 52.23644 | -1.23015 | 14597 ft | 313 kts | 311° |
| 2026-05-08 20:44 | 52.25126 | -1.25601 | 14313 ft | 311 kts | 311° |
| 2026-05-08 20:44 | 52.26599 | -1.28178 | 14019 ft | 310 kts | 311° |
| 2026-05-08 20:45 | 52.28063 | -1.30746 | 13715 ft | 308 kts | 310° |
| 2026-05-08 20:45 | 52.29513 | -1.33283 | 13379 ft | 305 kts | 311° |
| 2026-05-08 20:45 | 52.30956 | -1.35808 | 13066 ft | 302 kts | 311° |
| 2026-05-08 20:45 | 52.32385 | -1.38319 | 12747 ft | 301 kts | 311° |
| 2026-05-08 20:46 | 52.33801 | -1.40818 | 12430 ft | 299 kts | 311° |
| 2026-05-08 20:46 | 52.35210 | -1.43314 | 12123 ft | 298 kts | 311° |
| 2026-05-08 20:46 | 52.36609 | -1.45805 | 11804 ft | 296 kts | 311° |
| 2026-05-08 20:46 | 52.37996 | -1.48286 | 11498 ft | 295 kts | 311° |
| 2026-05-08 20:47 | 52.39377 | -1.50759 | 11173 ft | 294 kts | 310° |
| 2026-05-08 20:47 | 52.40764 | -1.53235 | 10682 ft | 297 kts | 311° |
| 2026-05-08 20:47 | 52.42279 | -1.55474 | 10189 ft | 295 kts | 323° |
| 2026-05-08 20:47 | 52.43980 | -1.57348 | 9666 ft | 288 kts | 325° |
| 2026-05-08 20:48 | 52.45653 | -1.59136 | 9136 ft | 285 kts | 326° |
| 2026-05-08 20:48 | 52.47313 | -1.60907 | 8606 ft | 284 kts | 326° |
| 2026-05-08 20:48 | 52.48963 | -1.62672 | 8093 ft | 283 kts | 326° |
| 2026-05-08 20:48 | 52.50604 | -1.64434 | 7584 ft | 281 kts | 326° |
| 2026-05-08 20:49 | 52.52216 | -1.66169 | 7085 ft | 273 kts | 326° |
| 2026-05-08 20:49 | 52.53785 | -1.67855 | 6585 ft | 266 kts | 326° |
| 2026-05-08 20:49 | 52.55315 | -1.69500 | 6068 ft | 260 kts | 326° |
| 2026-05-08 20:49 | 52.56812 | -1.71115 | 5555 ft | 255 kts | 326° |
| 2026-05-08 20:50 | 52.58280 | -1.72705 | 5128 ft | 247 kts | 326° |
| 2026-05-08 20:50 | 52.59676 | -1.74223 | 4791 ft | 237 kts | 326° |
| 2026-05-08 20:50 | 52.61024 | -1.75692 | 4447 ft | 229 kts | 326° |
| 2026-05-08 20:50 | 52.62283 | -1.77274 | 4121 ft | 227 kts | 307° |
| 2026-05-08 20:51 | 52.62915 | -1.79567 | 3812 ft | 218 kts | 271° |
| 2026-05-08 20:51 | 52.62821 | -1.81977 | 3654 ft | 207 kts | 257° |
| 2026-05-08 20:51 | 52.62581 | -1.84270 | 3524 ft | 198 kts | 255° |
| 2026-05-08 20:51 | 52.62046 | -1.86258 | 3420 ft | 187 kts | 229° |
| 2026-05-08 20:52 | 52.61258 | -1.87929 | 3287 ft | 182 kts | 226° |
| 2026-05-08 20:52 | 52.60308 | -1.89210 | 3176 ft | 174 kts | 196° |
| 2026-05-08 20:52 | 52.59128 | -1.89453 | 3090 ft | 171 kts | 173° |
| 2026-05-08 20:52 | 52.57999 | -1.88875 | 3016 ft | 171 kts | 150° |
| 2026-05-08 20:53 | 52.57007 | -1.87785 | 2833 ft | 172 kts | 147° |
| 2026-05-08 20:53 | 52.56021 | -1.86677 | 2643 ft | 171 kts | 147° |
| 2026-05-08 20:53 | 52.55043 | -1.85581 | 2423 ft | 168 kts | 147° |
| 2026-05-08 20:53 | 52.54086 | -1.84510 | 2197 ft | 164 kts | 147° |
| 2026-05-08 20:54 | 52.53152 | -1.83465 | 1982 ft | 161 kts | 147° |
| 2026-05-08 20:54 | 52.52232 | -1.82438 | 1758 ft | 158 kts | 147° |
| 2026-05-08 20:54 | 52.51324 | -1.81424 | 1549 ft | 157 kts | 147° |
| 2026-05-08 20:54 | 52.50467 | -1.80466 | 1364 ft | 144 kts | 147° |
| 2026-05-08 20:55 | 52.49654 | -1.79560 | 1161 ft | 139 kts | 146° |
| 2026-05-08 20:55 | 52.48858 | -1.78673 | 963 ft | 137 kts | 146° |
| 2026-05-08 20:55 | 52.48069 | -1.77794 | 771 ft | 137 kts | 145° |
| 2026-05-08 20:55 | 52.47283 | -1.76915 | 572 ft | 137 kts | 145° |
| 2026-05-08 20:56 | 52.46500 | -1.76038 | 391 ft | 136 kts | 146° |
| 2026-05-08 20:56 | 52.45748 | -1.75206 | 324 ft | 115 kts | 146° |
| 2026-05-08 20:56 | 52.45230 | -1.74629 | 327 ft | 67 kts | 146° |
| 2026-05-08 20:56 | 52.44961 | -1.74329 | 326 ft | 16 kts | 145° |
| 2026-05-08 20:57 | 52.44954 | -1.74197 | 324 ft | 12 kts | 76° |
| 2026-05-08 20:57 | 52.44973 | -1.74077 | 327 ft | 11 kts | 75° |
| 2026-05-08 20:57 | 52.44996 | -1.73938 | 321 ft | 13 kts | 70° |
| 2026-05-08 20:57 | 52.45042 | -1.73819 | 323 ft | 12 kts | 56° |
| 2026-05-08 20:58 | 52.45100 | -1.73777 | 323 ft | 9 kts | 338° |
| 2026-05-08 20:58 | 52.45150 | -1.73830 | 323 ft | 8 kts | 325° |
| 2026-05-08 20:58 | 52.45193 | -1.73878 | 323 ft | 7 kts | 326° |
| 2026-05-08 20:58 | 52.45229 | -1.73918 | 323 ft | 6 kts | 326° |
| 2026-05-08 20:59 | 52.45260 | -1.73953 | 323 ft | 6 kts | 326° |
| 2026-05-08 20:59 | 52.45319 | -1.73957 | 323 ft | 13 kts | 43° |
| 2026-05-08 20:59 | 52.45378 | -1.73819 | 323 ft | 15 kts | 56° |
| 2026-05-08 20:59 | 52.45419 | -1.73718 | 322 ft | 7 kts | 64° |
| 2026-05-08 21:00 | 52.45402 | -1.73684 | 323 ft | 3 kts | 141° |
| 2026-05-08 21:00 | 52.45386 | -1.73666 | 323 ft | 2 kts | 145° |
| 2026-05-08 21:00 | 52.45372 | -1.73651 | 323 ft | 3 kts | 146° |
| 2026-05-08 21:00 | 52.45361 | -1.73637 | 323 ft | 2 kts | 146° |
| 2026-05-08 21:01 | 52.45354 | -1.73630 | 323 ft | 1 kts | 146° |
| 2026-05-08 21:01 | 52.45351 | -1.73627 | 323 ft | 1 kts | 146° |
| 2026-05-08 21:01 | 52.45351 | -1.73626 | 323 ft | 0 kts | 146° |